Time;durP1;ratioP1;P1;durP2;ratioP2;P2;SDS_P1;SDS_P2;PMS_P1;PMS_P2;Temp;Humidity;BMP_temperature;BMP_pressure;BME280_temperature;BME280_humidity;BME280_pressure;Samples;Min_cycle;Max_cycle;Signal;HPM_P1;HPM_P2
2022/01/05 00:01:55;;;;;;;4.10;1.90;;;;;;;5.21;85.84;97800.64;1751363;80;21508;-60
2022/01/05 00:04:21;;;;;;;3.27;1.30;;;;;;;5.19;85.85;97783.37;1751410;80;22171;-60
2022/01/05 00:06:47;;;;;;;1.73;1.17;;;;;;;5.20;85.88;97784.24;1746775;80;21084;-60
2022/01/05 00:09:14;;;;;;;3.07;1.27;;;;;;;5.19;85.92;97786.55;1750567;80;21043;-60
2022/01/05 00:11:41;;;;;;;2.47;1.33;;;;;;;5.19;85.97;97778.05;1748597;80;21084;-59
2022/01/05 00:14:07;;;;;;;2.30;1.30;;;;;;;5.20;86.01;97774.91;1749222;80;21099;-61
2022/01/05 00:16:33;;;;;;;3.93;1.90;;;;;;;5.21;86.05;97781.49;1764795;80;21024;-61
2022/01/05 00:19:00;;;;;;;5.43;1.40;;;;;;;5.21;86.08;97774.83;1752836;80;21011;-60
2022/01/05 00:21:26;;;;;;;5.03;1.63;;;;;;;5.23;86.09;97762.27;1752066;80;21130;-61
2022/01/05 00:23:53;;;;;;;2.17;1.33;;;;;;;5.23;86.14;97764.07;1751027;80;21128;-61
2022/01/05 00:26:19;;;;;;;3.20;1.47;;;;;;;5.23;86.12;97758.27;1748748;80;21052;-60
2022/01/05 00:28:45;;;;;;;5.87;1.20;;;;;;;5.22;86.12;97759.21;1750523;81;21055;-60
2022/01/05 00:31:12;;;;;;;2.57;1.27;;;;;;;5.23;86.10;97761.41;1750357;81;21052;-60
2022/01/05 00:33:38;;;;;;;5.67;2.20;;;;;;;5.22;86.15;97750.34;1748771;80;21381;-58
2022/01/05 00:36:06;;;;;;;3.77;1.93;;;;;;;5.22;86.18;97751.20;1745975;81;21362;-58
2022/01/05 00:38:34;;;;;;;2.07;1.50;;;;;;;5.22;86.27;97749.88;1743928;81;21509;-57
2022/01/05 00:41:01;;;;;;;2.70;1.60;;;;;;;5.25;86.30;97747.04;1742462;81;21013;-58
2022/01/05 00:43:27;;;;;;;3.00;1.40;;;;;;;5.27;86.34;97757.63;1742594;81;21443;-59
2022/01/05 00:45:54;;;;;;;2.63;1.37;;;;;;;5.27;86.36;97743.78;1739239;79;21557;-59
2022/01/05 00:48:20;;;;;;;2.80;1.10;;;;;;;5.28;86.42;97737.50;1740951;81;21124;-59
2022/01/05 00:50:46;;;;;;;1.47;1.10;;;;;;;5.27;86.45;97738.45;1744872;81;21068;-59
2022/01/05 00:53:13;;;;;;;2.57;1.50;;;;;;;5.29;86.54;97730.36;1742845;81;21099;-58
2022/01/05 00:55:39;;;;;;;2.03;1.10;;;;;;;5.31;86.59;97729.80;1759125;80;20905;-57
2022/01/05 00:58:05;;;;;;;1.70;1.13;;;;;;;5.34;86.59;97734.97;1740207;81;21084;-58
2022/01/05 01:00:32;;;;;;;2.80;1.43;;;;;;;5.35;86.59;97721.16;1741371;81;21119;-59
2022/01/05 01:02:58;;;;;;;4.10;1.10;;;;;;;5.37;86.59;97722.77;1740076;81;22349;-58
2022/01/05 01:05:25;;;;;;;5.70;1.73;;;;;;;5.39;86.58;97712.00;1740775;81;21029;-60
2022/01/05 01:07:51;;;;;;;2.83;1.50;;;;;;;5.39;86.57;97715.53;1739602;81;21044;-58
2022/01/05 01:10:18;;;;;;;3.73;1.17;;;;;;;5.40;86.60;97711.92;1742441;81;21045;-58
2022/01/05 01:12:46;;;;;;;4.43;1.27;;;;;;;5.40;86.56;97707.06;1742351;81;21041;-57
2022/01/05 01:15:12;;;;;;;1.63;1.10;;;;;;;5.40;86.58;97702.58;1739368;81;21690;-58
2022/01/05 01:17:38;;;;;;;3.33;1.17;;;;;;;5.41;86.53;97703.44;1738987;81;21100;-59
2022/01/05 01:20:05;;;;;;;2.27;1.40;;;;;;;5.41;86.50;97707.45;1739868;81;21087;-58
2022/01/05 01:22:33;;;;;;;1.97;1.10;;;;;;;5.42;86.51;97698.49;1744320;80;21013;-59
2022/01/05 01:24:59;;;;;;;3.27;1.00;;;;;;;5.41;86.50;97694.96;1744614;80;21061;-58
2022/01/05 01:27:25;;;;;;;1.43;1.10;;;;;;;5.43;86.51;97691.73;1743320;81;20985;-59
2022/01/05 01:29:52;;;;;;;2.57;1.13;;;;;;;5.44;86.45;97684.59;1746017;81;20918;-59
2022/01/05 01:32:18;;;;;;;2.80;1.93;;;;;;;5.46;86.44;97680.86;1742116;81;20997;-59
2022/01/05 01:34:44;;;;;;;3.53;1.47;;;;;;;5.46;86.43;97678.19;1740625;80;21045;-59
2022/01/05 01:37:11;;;;;;;3.23;1.73;;;;;;;5.47;86.39;97670.57;1752427;80;22851;-58
2022/01/05 01:39:37;;;;;;;2.43;1.80;;;;;;;5.45;86.35;97661.80;1763356;80;21093;-58
2022/01/05 01:42:04;;;;;;;3.90;1.60;;;;;;;5.46;86.33;97658.65;1741632;81;21072;-60
2022/01/05 01:44:31;;;;;;;2.73;1.57;;;;;;;5.46;86.31;97654.65;1738141;81;21069;-59
2022/01/05 01:46:57;;;;;;;4.80;1.80;;;;;;;5.47;86.33;97644.36;1751161;80;21037;-59
2022/01/05 01:49:24;;;;;;;3.70;1.93;;;;;;;5.47;86.31;97638.55;1733850;81;21138;-59
2022/01/05 01:51:50;;;;;;;2.40;1.40;;;;;;;5.48;86.27;97631.41;1740318;81;21032;-58
2022/01/05 01:54:16;;;;;;;3.57;1.73;;;;;;;5.47;86.25;97633.22;1745719;80;21110;-58
2022/01/05 01:56:42;;;;;;;4.53;1.70;;;;;;;5.48;86.24;97633.60;1750112;80;21031;-59
2022/01/05 01:59:09;;;;;;;4.10;1.63;;;;;;;5.49;86.26;97626.45;1737361;81;21095;-59
2022/01/05 02:01:35;;;;;;;3.00;1.47;;;;;;;5.51;86.24;97625.89;1754628;80;22878;-59
2022/01/05 02:04:01;;;;;;;3.03;1.47;;;;;;;5.51;86.21;97622.75;1752191;80;21485;-59
2022/01/05 02:06:27;;;;;;;3.67;1.67;;;;;;;5.52;86.21;97611.12;1751525;80;21697;-60
2022/01/05 02:08:54;;;;;;;1.63;1.53;;;;;;;5.53;86.20;97610.14;1750473;80;21680;-59
2022/01/05 02:11:20;;;;;;;4.90;1.40;;;;;;;5.55;86.15;97611.39;1752125;80;21158;-60
2022/01/05 02:13:46;;;;;;;3.07;1.47;;;;;;;5.55;86.20;97609.59;1754434;80;21126;-58
2022/01/05 02:16:29;;;;;;;2.60;1.20;;;;;;;5.57;86.20;97605.49;1737966;81;21083;-58
2022/01/05 02:18:59;;;;;;;6.97;1.90;;;;;;;5.58;86.20;97601.88;1745976;81;21020;-59
2022/01/05 02:21:29;;;;;;;2.27;1.10;;;;;;;5.57;86.17;97597.01;1768816;80;21121;-58
2022/01/05 02:23:55;;;;;;;2.30;1.20;;;;;;;5.60;86.18;97602.64;1740608;81;21140;-60
2022/01/05 02:26:21;;;;;;;5.17;1.73;;;;;;;5.61;86.16;97601.19;1738186;81;21133;-58
2022/01/05 02:28:49;;;;;;;3.20;1.33;;;;;;;5.64;86.18;97593.00;1752372;80;22342;-60
2022/01/05 02:31:15;;;;;;;5.87;1.13;;;;;;;5.67;86.13;97594.16;1750591;80;22552;-59
2022/01/05 02:33:42;;;;;;;4.50;1.93;;;;;;;5.70;86.06;97587.27;1750024;80;21443;-60
2022/01/05 02:36:10;;;;;;;2.43;1.10;;;;;;;5.71;86.04;97589.46;1760452;79;21511;-60
2022/01/05 02:38:36;;;;;;;3.00;1.30;;;;;;;5.74;85.99;97595.09;1740922;81;21076;-59
2022/01/05 02:41:09;;;;;;;1.40;0.90;;;;;;;5.75;85.91;97584.80;1739501;81;21099;-61
2022/01/05 02:43:37;;;;;;;1.53;0.90;;;;;;;5.76;85.83;97579.84;1739185;81;21104;-59
2022/01/05 02:46:03;;;;;;;1.90;1.10;;;;;;;5.76;85.83;97590.05;1744895;79;20969;-58
2022/01/05 02:48:32;;;;;;;3.83;1.07;;;;;;;5.78;85.79;97582.81;1740187;81;21024;-60
2022/01/05 02:50:59;;;;;;;2.90;1.20;;;;;;;5.80;85.71;97583.55;1738602;81;21810;-58
2022/01/05 02:53:25;;;;;;;3.50;1.30;;;;;;;5.81;85.66;97577.25;1741333;81;21366;-58
2022/01/05 02:55:52;;;;;;;1.97;1.27;;;;;;;5.83;85.56;97580.70;1741467;81;21580;-58
2022/01/05 02:58:18;;;;;;;3.03;0.90;;;;;;;5.84;85.51;97587.75;1739392;81;21132;-58
2022/01/05 03:00:45;;;;;;;2.40;1.23;;;;;;;5.85;85.43;97581.94;1741420;81;21444;-53
2022/01/05 03:03:11;;;;;;;1.83;0.90;;;;;;;5.87;85.39;97574.70;1739766;81;22621;-55
2022/01/05 03:05:38;;;;;;;1.57;1.03;;;;;;;5.90;85.33;97583.38;1736368;81;21057;-56
2022/01/05 03:08:04;;;;;;;1.80;1.10;;;;;;;5.91;85.21;97577.09;1736382;81;21127;-59
2022/01/05 03:10:31;;;;;;;3.57;1.40;;;;;;;5.93;85.13;97579.66;1739161;81;21096;-60
2022/01/05 03:12:57;;;;;;;1.67;1.27;;;;;;;5.93;85.09;97577.00;1738867;81;21123;-56
2022/01/05 03:15:24;;;;;;;1.70;1.03;;;;;;;5.94;85.00;97578.23;1741194;81;22854;-56
2022/01/05 03:17:50;;;;;;;3.93;1.00;;;;;;;5.95;84.90;97583.97;1741084;81;21343;-55
2022/01/05 03:20:20;;;;;;;1.50;1.10;;;;;;;5.97;84.85;97584.70;1737749;81;21119;-59
2022/01/05 03:22:47;;;;;;;4.07;1.33;;;;;;;5.98;84.80;97584.22;1738037;81;21159;-56
2022/01/05 03:25:16;;;;;;;2.13;1.23;;;;;;;5.99;84.75;97580.13;1737746;81;21065;-58
2022/01/05 03:27:44;;;;;;;2.87;1.30;;;;;;;6.03;84.68;97583.47;1737943;81;22573;-56
2022/01/05 03:30:17;;;;;;;2.90;1.27;;;;;;;6.04;84.57;97583.34;1740854;81;20937;-60
2022/01/05 03:33:08;;;;;;;3.13;1.23;;;;;;;6.06;84.49;97578.77;1745873;81;21712;-57
2022/01/05 03:35:14;;;;;;;1.77;1.30;;;;;;;6.07;84.43;97584.49;1739249;81;21103;-60
2022/01/05 03:37:41;;;;;;;2.13;1.20;;;;;;;6.10;84.36;97588.79;1739944;80;21091;-60
2022/01/05 03:40:09;;;;;;;2.80;1.17;;;;;;;6.10;84.18;97590.13;1737871;81;23111;-56
2022/01/05 03:42:36;;;;;;;1.87;1.00;;;;;;;6.11;84.02;97585.64;1740844;81;20925;-56
2022/01/05 03:45:03;;;;;;;2.23;1.07;;;;;;;6.12;84.00;97588.22;1737691;81;20980;-59
2022/01/05 03:47:30;;;;;;;2.03;1.30;;;;;;;6.13;83.92;97583.70;1742106;81;21117;-58
2022/01/05 03:49:56;;;;;;;2.37;1.00;;;;;;;6.14;83.87;97584.95;1740508;81;21080;-60
2022/01/05 03:52:23;;;;;;;1.23;0.93;;;;;;;6.15;83.85;97586.66;1739673;81;21151;-59
2022/01/05 03:54:49;;;;;;;1.93;0.80;;;;;;;6.18;83.82;97583.81;1739665;81;21068;-55
2022/01/05 03:57:15;;;;;;;1.47;1.10;;;;;;;6.21;83.81;97574.75;1741974;80;21104;-58
2022/01/05 03:59:42;;;;;;;1.62;1.15;;;;;;;6.23;83.84;97571.47;1740361;81;21073;-59
2022/01/05 04:02:08;;;;;;;2.20;1.03;;;;;;;6.24;83.86;97570.52;1742418;79;21115;-60
2022/01/05 04:04:34;;;;;;;1.60;1.00;;;;;;;6.24;83.88;97574.05;1740493;80;21084;-58
2022/01/05 04:07:01;;;;;;;2.60;1.20;;;;;;;6.25;83.88;97562.41;1737609;81;21190;-59
2022/01/05 04:09:28;;;;;;;1.93;1.50;;;;;;;6.26;83.85;97569.47;1739717;81;21103;-54
2022/01/05 04:11:54;;;;;;;2.87;1.00;;;;;;;6.26;83.89;97561.45;1738938;81;21561;-60
2022/01/05 04:14:21;;;;;;;2.37;1.17;;;;;;;6.27;83.87;97568.99;1740426;81;21072;-57
2022/01/05 04:16:47;;;;;;;2.60;1.40;;;;;;;6.26;83.86;97561.45;1739016;81;21843;-58
2022/01/05 04:19:14;;;;;;;3.57;1.30;;;;;;;6.27;83.84;97559.17;1694340;81;21053;-56
2022/01/05 04:21:42;;;;;;;2.13;0.90;;;;;;;6.27;83.80;97558.31;1738000;81;21052;-56
2022/01/05 04:24:12;;;;;;;5.47;1.30;;;;;;;6.27;83.83;97561.84;1738283;81;21424;-56
2022/01/05 04:26:39;;;;;;;2.67;1.17;;;;;;;6.29;83.81;97559.07;1708790;81;21140;-55
2022/01/05 04:29:10;;;;;;;3.33;1.40;;;;;;;6.29;83.75;97570.62;1737554;81;21488;-57
2022/01/05 04:31:37;;;;;;;2.37;1.07;;;;;;;6.30;83.72;97570.11;1739804;81;21159;-57
2022/01/05 04:34:05;;;;;;;2.40;1.33;;;;;;;6.31;83.67;97571.35;1741612;81;21123;-56
2022/01/05 04:36:33;;;;;;;4.60;1.53;;;;;;;6.32;83.56;97569.54;1706901;82;21030;-59
2022/01/05 04:38:59;;;;;;;2.87;1.07;;;;;;;6.32;83.55;97574.88;1683649;83;21090;-57
2022/01/05 04:41:28;;;;;;;2.13;0.90;;;;;;;6.34;83.54;97586.33;1716045;82;22145;-58
2022/01/05 04:43:54;;;;;;;1.83;0.90;;;;;;;6.36;83.56;97585.28;1688825;82;21664;-56
2022/01/05 04:46:20;;;;;;;1.95;1.07;;;;;;;6.40;83.58;97581.91;1718999;82;21574;-59
2022/01/05 04:51:27;;;;;;;1.20;0.93;;;;;;;6.48;83.49;97566.23;1775679;78;22714;-59
2022/01/05 04:53:53;;;;;;;3.50;1.60;;;;;;;6.46;83.44;97569.00;1763981;79;21435;-58
2022/01/05 04:56:20;;;;;;;2.40;1.50;;;;;;;6.49;83.39;97576.44;1764490;79;21589;-57
2022/01/05 04:58:46;;;;;;;4.90;0.90;;;;;;;6.50;83.27;97572.81;1731651;80;21037;-60
2022/01/05 05:01:12;;;;;;;1.87;0.90;;;;;;;6.50;83.19;97578.16;1756022;80;20979;-56
2022/01/05 05:03:38;;;;;;;1.60;1.00;;;;;;;6.52;83.10;97577.11;1757378;80;21057;-55
2022/01/05 05:06:05;;;;;;;1.60;1.10;;;;;;;6.54;83.00;97586.38;1756367;80;20985;-56
2022/01/05 05:08:31;;;;;;;3.02;1.05;;;;;;;6.53;82.91;97577.49;1760925;80;21786;-59
2022/01/05 05:10:57;;;;;;;2.03;1.07;;;;;;;6.55;82.81;97568.87;1759473;80;21411;-57
2022/01/05 05:13:24;;;;;;;3.22;1.37;;;;;;;6.57;82.67;97568.77;1761347;80;21470;-58
2022/01/05 05:15:50;;;;;;;1.47;1.23;;;;;;;6.56;82.63;97555.88;1750624;79;21115;-60
2022/01/05 05:18:17;;;;;;;2.00;1.00;;;;;;;6.58;82.49;97562.47;1749638;80;21582;-56
2022/01/05 05:20:43;;;;;;;3.05;1.10;;;;;;;6.59;82.38;97566.86;1761797;80;21200;-57
2022/01/05 05:23:09;;;;;;;1.10;0.88;;;;;;;6.60;82.28;97571.25;1763166;79;21326;-57
2022/01/05 05:25:36;;;;;;;5.30;0.90;;;;;;;6.62;82.20;97582.23;1753645;79;21449;-58
2022/01/05 05:28:03;;;;;;;1.63;0.90;;;;;;;6.65;82.08;97579.80;1759778;80;21029;-58
2022/01/05 05:30:29;;;;;;;3.07;1.03;;;;;;;6.68;81.99;97592.98;1756735;80;21037;-59
2022/01/05 05:32:57;;;;;;;2.03;1.10;;;;;;;6.70;81.87;97592.41;1715515;82;21157;-59
2022/01/05 05:35:26;;;;;;;1.57;0.98;;;;;;;6.70;81.77;97591.93;1694316;81;21459;-57
2022/01/05 05:37:52;;;;;;;1.83;1.17;;;;;;;6.72;81.71;97605.20;1695533;82;21070;-56
2022/01/05 05:40:18;;;;;;;2.92;1.17;;;;;;;6.74;81.60;97609.94;1695933;82;21084;-58
2022/01/05 05:42:45;;;;;;;3.33;1.00;;;;;;;6.76;81.50;97621.40;1696873;82;21089;-61
2022/01/05 05:45:11;;;;;;;3.80;1.00;;;;;;;6.77;81.39;97613.28;1694243;82;21125;-57
2022/01/05 05:47:37;;;;;;;4.53;1.50;;;;;;;6.79;81.30;97618.05;1717046;81;21114;-58
2022/01/05 05:50:04;;;;;;;1.00;0.90;;;;;;;6.81;81.16;97625.47;1687122;83;22329;-58
2022/01/05 05:52:31;;;;;;;2.05;1.05;;;;;;;6.82;81.08;97627.66;1708985;82;21132;-58
2022/01/05 05:54:58;;;;;;;1.43;1.10;;;;;;;6.83;81.00;97624.04;1701970;82;21093;-55
2022/01/05 05:57:24;;;;;;;2.98;0.90;;;;;;;6.85;80.91;97615.44;1698325;82;21507;-54
2022/01/05 05:59:50;;;;;;;2.02;1.02;;;;;;;6.88;80.80;97627.76;1704705;82;21446;-53
2022/01/05 06:02:17;;;;;;;2.22;1.00;;;;;;;6.90;80.74;97640.52;1677900;82;21120;-55
2022/01/05 06:04:43;;;;;;;1.20;0.80;;;;;;;6.93;80.68;97634.50;1707044;83;21559;-54
2022/01/05 06:07:10;;;;;;;1.42;1.10;;;;;;;6.97;80.59;97633.35;1692390;83;21125;-55
2022/01/05 06:09:36;;;;;;;3.25;0.90;;;;;;;7.00;80.51;97653.19;1701730;83;21090;-56
2022/01/05 06:12:03;;;;;;;1.20;0.93;;;;;;;7.04;80.42;97652.03;1703413;81;21065;-54
2022/01/05 06:14:30;;;;;;;1.62;1.07;;;;;;;7.07;80.34;97658.50;1697855;83;22288;-55
2022/01/05 06:16:57;;;;;;;1.35;0.90;;;;;;;7.11;80.23;97657.34;1710281;83;21077;-56
2022/01/05 06:19:23;;;;;;;1.60;0.90;;;;;;;7.14;80.20;97647.78;1703244;82;21129;-58
2022/01/05 06:21:50;;;;;;;1.47;0.80;;;;;;;7.19;80.14;97655.48;1695170;83;21821;-57
2022/01/05 06:24:17;;;;;;;1.30;1.02;;;;;;;7.22;80.06;97651.27;1702310;83;21121;-58
2022/01/05 06:26:53;;;;;;;1.77;0.90;;;;;;;7.27;79.95;97665.19;1701000;83;21077;-54
2022/01/05 06:29:15;;;;;;;2.17;0.90;;;;;;;7.31;79.86;97661.84;1697732;83;21491;-54
2022/01/05 06:31:43;;;;;;;1.00;0.72;;;;;;;7.34;79.75;97674.51;1694503;83;21045;-54
2022/01/05 06:34:10;;;;;;;2.90;0.80;;;;;;;7.40;79.68;97669.23;1703076;82;21444;-59
2022/01/05 06:36:36;;;;;;;1.80;0.80;;;;;;;7.44;79.52;97662.22;1707124;83;21531;-57
2022/01/05 06:39:03;;;;;;;1.10;0.70;;;;;;;7.48;79.53;97670.43;1706010;81;22258;-57
2022/01/05 06:41:30;;;;;;;1.40;0.90;;;;;;;7.54;79.42;97668.66;1722573;81;21488;-55
2022/01/05 06:43:56;;;;;;;1.05;0.80;;;;;;;7.61;79.28;97671.77;1721533;81;21619;-58
2022/01/05 06:46:22;;;;;;;1.00;0.80;;;;;;;7.67;79.12;97677.17;1713117;81;21125;-58
2022/01/05 06:48:49;;;;;;;1.72;1.00;;;;;;;7.72;79.05;97677.72;1701768;83;21204;-59
2022/01/05 06:51:16;;;;;;;1.25;0.90;;;;;;;7.75;78.86;97686.86;1703403;83;21140;-58
2022/01/05 06:53:43;;;;;;;1.15;0.80;;;;;;;7.78;78.79;97686.18;1702763;83;21136;-56
2022/01/05 06:56:09;;;;;;;1.20;0.75;;;;;;;7.82;78.73;97690.86;1698997;83;21077;-59
2022/01/05 06:58:35;;;;;;;1.50;0.70;;;;;;;7.85;78.66;97682.59;1687262;83;21113;-55
2022/01/05 07:01:02;;;;;;;1.20;0.90;;;;;;;7.89;78.52;97699.69;1685435;83;21074;-57
2022/01/05 07:03:29;;;;;;;1.40;0.90;;;;;;;7.94;78.44;97702.03;1704404;81;21114;-55
2022/01/05 07:05:55;;;;;;;1.52;1.05;;;;;;;7.96;78.31;97690.26;1723441;80;21141;-58
2022/01/05 07:08:21;;;;;;;3.37;0.90;;;;;;;7.99;78.16;97694.04;1704364;82;21057;-58
2022/01/05 07:10:48;;;;;;;1.60;0.85;;;;;;;8.02;78.03;97698.81;1710470;82;21143;-53
2022/01/05 07:13:14;;;;;;;1.47;0.80;;;;;;;8.04;77.93;97696.89;1704028;82;21186;-55
2022/01/05 07:15:40;;;;;;;3.87;0.90;;;;;;;8.06;77.83;97702.52;1705786;81;21097;-57
2022/01/05 07:18:07;;;;;;;1.50;0.88;;;;;;;8.10;77.79;97711.19;1705671;82;21109;-58
2022/01/05 07:20:33;;;;;;;1.95;0.90;;;;;;;8.10;77.73;97708.03;1707862;82;21161;-56
2022/01/05 07:23:00;;;;;;;1.30;0.80;;;;;;;8.14;77.72;97713.56;1709824;82;22895;-56
2022/01/05 07:25:26;;;;;;;1.15;0.88;;;;;;;8.17;77.58;97711.98;1715654;81;21260;-55
2022/01/05 07:27:53;;;;;;;0.80;0.70;;;;;;;8.18;77.49;97711.50;1691237;83;21135;-58
2022/01/05 07:30:19;;;;;;;1.22;0.70;;;;;;;8.20;77.48;97708.23;1698438;83;21497;-57
2022/01/05 07:32:45;;;;;;;1.72;0.75;;;;;;;8.22;77.43;97712.53;1708765;82;21706;-59
2022/01/05 07:35:11;;;;;;;3.55;0.80;;;;;;;8.23;77.41;97720.95;1713013;82;21122;-57
2022/01/05 07:37:38;;;;;;;1.87;1.00;;;;;;;8.26;77.43;97722.05;1714206;82;21145;-56
2022/01/05 07:40:06;;;;;;;1.37;1.05;;;;;;;8.28;77.43;97723.29;1710639;82;21165;-57
2022/01/05 07:42:34;;;;;;;1.67;0.78;;;;;;;8.30;77.40;97718.20;1707635;82;22056;-55
2022/01/05 07:45:02;;;;;;;0.98;0.80;;;;;;;8.32;77.36;97724.35;1714246;82;21504;-55
2022/01/05 07:47:29;;;;;;;1.30;0.90;;;;;;;8.35;77.33;97719.23;1712239;82;21759;-56
2022/01/05 07:49:55;;;;;;;1.40;0.85;;;;;;;8.38;77.32;97719.52;1710431;82;20998;-59
2022/01/05 07:52:21;;;;;;;2.75;0.98;;;;;;;8.39;77.37;97715.38;1711282;81;20915;-56
2022/01/05 07:54:47;;;;;;;1.50;0.90;;;;;;;8.42;77.36;97719.68;1710322;82;21116;-59
2022/01/05 07:57:14;;;;;;;1.50;0.90;;;;;;;8.46;77.35;97730.54;1713733;81;21050;-57
2022/01/05 07:59:40;;;;;;;1.20;0.82;;;;;;;8.49;77.31;97727.65;1730037;80;21177;-56
2022/01/05 08:02:06;;;;;;;1.25;0.90;;;;;;;8.50;77.30;97727.55;1696221;82;21080;-56
2022/01/05 08:04:33;;;;;;;1.30;0.90;;;;;;;8.52;77.30;97738.14;1689831;83;21208;-58
2022/01/05 08:06:59;;;;;;;1.50;1.10;;;;;;;8.55;77.37;97752.67;1692125;83;21125;-57
2022/01/05 08:09:28;;;;;;;2.17;0.78;;;;;;;8.60;77.35;97757.21;1696883;82;21094;-58
2022/01/05 08:11:54;;;;;;;1.22;1.00;;;;;;;8.64;77.37;97768.11;1700686;83;22253;-60
2022/01/05 08:14:20;;;;;;;1.20;1.00;;;;;;;8.70;77.39;97770.34;1691985;83;21017;-56
2022/01/05 08:16:46;;;;;;;1.00;0.68;;;;;;;8.77;77.27;97769.41;1697409;83;21307;-60
2022/01/05 08:19:12;;;;;;;1.27;0.82;;;;;;;8.84;77.16;97770.22;1699047;83;21138;-59
2022/01/05 08:21:39;;;;;;;1.02;0.80;;;;;;;8.91;77.17;97770.63;1690432;83;21377;-56
2022/01/05 08:24:06;;;;;;;3.62;0.80;;;;;;;8.96;77.09;97766.63;1691426;83;21666;-55
2022/01/05 08:26:32;;;;;;;1.10;0.75;;;;;;;9.05;76.95;97771.81;1703109;83;20995;-56
2022/01/05 08:29:00;;;;;;;1.40;1.00;;;;;;;9.12;76.80;97758.30;1707116;83;20962;-59
2022/01/05 08:31:26;;;;;;;1.00;0.80;;;;;;;9.20;76.68;97772.50;1698307;83;21072;-59
2022/01/05 08:33:56;;;;;;;1.70;0.90;;;;;;;9.29;76.54;97765.97;1695114;83;21110;-58
2022/01/05 08:36:21;;;;;;;2.60;1.00;;;;;;;9.37;76.31;97762.70;1696821;83;21151;-56
2022/01/05 08:38:47;;;;;;;1.40;0.90;;;;;;;9.42;76.18;97760.55;1701007;83;21263;-57
2022/01/05 08:41:13;;;;;;;2.12;1.10;;;;;;;9.49;76.05;97755.09;1692525;82;21137;-61
2022/01/05 08:43:40;;;;;;;1.55;0.72;;;;;;;9.55;75.78;97755.95;1694079;83;21129;-56
2022/01/05 08:46:07;;;;;;;0.95;0.80;;;;;;;9.63;75.66;97752.20;1694546;83;22447;-56
2022/01/05 08:48:33;;;;;;;1.00;0.80;;;;;;;9.69;75.30;97753.10;1703847;83;21609;-61
2022/01/05 08:50:59;;;;;;;1.50;0.85;;;;;;;9.75;75.14;97740.53;1691302;83;21049;-58
2022/01/05 08:53:26;;;;;;;1.05;0.80;;;;;;;9.82;74.97;97743.59;1698753;83;21046;-58
2022/01/05 08:55:52;;;;;;;2.65;0.90;;;;;;;9.87;74.80;97735.54;1693673;83;21179;-53
2022/01/05 08:58:19;;;;;;;1.15;0.82;;;;;;;9.93;74.61;97731.55;1700103;82;21148;-57
2022/01/05 09:00:45;;;;;;;1.67;1.00;;;;;;;9.98;74.23;97734.72;1703188;83;21437;-58
2022/01/05 09:03:16;;;;;;;1.17;0.88;;;;;;;10.03;73.91;97736.58;1695081;83;21665;-57
2022/01/05 09:05:42;;;;;;;1.60;1.02;;;;;;;10.07;73.72;97741.21;1705217;83;21141;-61
2022/01/05 09:08:09;;;;;;;1.50;1.10;;;;;;;10.10;73.42;97734.27;1697327;82;21062;-55
2022/01/05 09:10:35;;;;;;;2.47;0.90;;;;;;;10.13;73.20;97740.73;1692505;83;21461;-60
2022/01/05 09:13:01;;;;;;;1.17;0.98;;;;;;;10.14;72.94;97736.58;1696837;83;21133;-58
2022/01/05 09:15:29;;;;;;;2.00;1.02;;;;;;;10.15;72.70;97731.58;1691251;83;21111;-56
2022/01/05 09:17:57;;;;;;;0.98;0.90;;;;;;;10.16;72.56;97734.63;1705829;81;21152;-56
2022/01/05 09:20:24;;;;;;;1.55;1.12;;;;;;;10.21;72.35;97746.39;1706698;83;20923;-61
2022/01/05 09:22:51;;;;;;;1.67;1.00;;;;;;;10.20;72.31;97756.80;1688466;82;21061;-57
2022/01/05 09:25:18;;;;;;;1.05;0.93;;;;;;;10.21;72.15;97766.55;1718616;81;21202;-57
2022/01/05 09:27:46;;;;;;;2.05;1.57;;;;;;;10.18;71.94;97766.81;1703287;82;21503;-59
2022/01/05 09:30:13;;;;;;;2.33;0.90;;;;;;;10.17;71.90;97754.31;1705259;82;21101;-56
2022/01/05 09:32:40;;;;;;;1.37;1.00;;;;;;;10.16;71.98;97762.86;1708577;83;21073;-60
2022/01/05 09:35:09;;;;;;;2.85;0.85;;;;;;;10.17;71.91;97765.06;1708235;82;21056;-60
2022/01/05 09:37:40;;;;;;;3.37;0.90;;;;;;;10.14;71.87;97759.42;1712428;81;22121;-57
2022/01/05 09:42:49;;;;;;;1.80;1.05;;;;;;;10.12;71.64;97776.16;1721555;81;21372;-58
2022/01/05 09:45:20;;;;;;;2.10;1.00;;;;;;;10.09;71.56;97779.11;1712943;83;21173;-56
2022/01/05 09:48:18;;;;;;;1.57;1.22;;;;;;;10.05;71.61;97787.51;1696438;83;20958;-57
2022/01/05 09:50:50;;;;;;;2.10;0.90;;;;;;;10.00;71.63;97783.84;1609043;86;21194;-55
2022/01/05 09:53:17;;;;;;;1.17;0.90;;;;;;;9.96;71.67;97792.24;1678226;83;21151;-57
2022/01/05 09:55:45;;;;;;;1.12;0.90;;;;;;;9.93;71.75;97800.56;1690953;83;21616;-58
2022/01/05 09:58:12;;;;;;;1.10;0.90;;;;;;;9.90;71.77;97803.47;1722027;81;21673;-57
2022/01/05 10:00:38;;;;;;;1.10;1.00;;;;;;;9.88;71.95;97799.55;1688590;83;21757;-58
2022/01/05 10:03:07;;;;;;;1.75;1.10;;;;;;;9.89;72.04;97807.98;1710222;83;21225;-56
2022/01/05 10:05:33;;;;;;;2.27;1.10;;;;;;;9.87;71.99;97813.47;1701128;83;21034;-58
2022/01/05 10:07:59;;;;;;;1.17;0.90;;;;;;;9.84;72.02;97823.61;1693167;82;21620;-58
2022/01/05 10:10:25;;;;;;;1.00;0.90;;;;;;;9.83;71.89;97827.27;1693792;83;21784;-60
2022/01/05 10:12:52;;;;;;;1.10;0.85;;;;;;;9.82;71.85;97830.45;1698698;83;21066;-61
2022/01/05 10:15:19;;;;;;;1.40;1.10;;;;;;;9.83;71.65;97835.33;1691424;83;22430;-60
2022/01/05 10:17:47;;;;;;;1.70;1.15;;;;;;;9.85;71.59;97833.39;1689314;83;21045;-57
2022/01/05 10:20:13;;;;;;;1.02;0.90;;;;;;;9.84;71.26;97845.97;1697017;83;21133;-57
2022/01/05 10:22:42;;;;;;;1.00;0.80;;;;;;;9.85;71.09;97843.66;1702869;83;21070;-58
2022/01/05 10:25:19;;;;;;;1.20;0.90;;;;;;;9.83;70.88;97840.70;1700539;83;20921;-56
2022/01/05 10:28:03;;;;;;;2.05;0.93;;;;;;;9.80;70.74;97829.70;1671918;82;21107;-59
2022/01/05 10:30:43;;;;;;;1.52;0.90;;;;;;;9.78;70.73;97832.15;1702242;83;20979;-56
2022/01/05 10:33:10;;;;;;;0.88;0.70;;;;;;;9.73;70.46;97831.62;1692260;83;21064;-56
2022/01/05 10:35:38;;;;;;;1.72;0.80;;;;;;;9.70;70.35;97834.52;1699599;82;20879;-61
2022/01/05 10:38:09;;;;;;;1.57;1.00;;;;;;;9.68;70.26;97840.03;1698170;83;20927;-58
2022/01/05 10:40:38;;;;;;;1.82;0.80;;;;;;;9.68;70.16;97837.84;1729264;81;21102;-58
2022/01/05 10:43:11;;;;;;;1.30;1.00;;;;;;;9.68;70.10;97841.38;1694060;83;21083;-56
2022/01/05 10:45:41;;;;;;;1.40;0.88;;;;;;;9.69;70.09;97832.35;1689364;83;21016;-57
2022/01/05 10:48:19;;;;;;;1.70;1.00;;;;;;;9.69;70.00;97836.87;1687965;83;21065;-57
2022/01/05 10:50:50;;;;;;;2.10;0.82;;;;;;;9.66;69.84;97828.55;1701523;83;20970;-59
2022/01/05 10:53:20;;;;;;;1.85;1.15;;;;;;;9.65;69.84;97823.28;1710548;83;21084;-57
2022/01/05 10:55:47;;;;;;;1.98;1.10;;;;;;;9.63;69.85;97828.76;1699302;83;21089;-60
2022/01/05 10:58:16;;;;;;;1.20;0.80;;;;;;;9.62;69.89;97823.49;1692231;83;21033;-57
2022/01/05 11:00:52;;;;;;;3.15;0.90;;;;;;;9.61;69.94;97822.64;1712843;83;21449;-58
2022/01/05 11:03:35;;;;;;;1.17;1.00;;;;;;;9.61;69.96;97821.30;1705741;81;21006;-57
2022/01/05 11:06:13;;;;;;;1.65;0.95;;;;;;;9.65;69.92;97825.48;1711488;81;20906;-56
2022/01/05 11:08:55;;;;;;;1.30;0.95;;;;;;;9.69;69.70;97830.15;1702375;83;21181;-56
2022/01/05 11:11:44;;;;;;;2.27;1.17;;;;;;;9.73;69.69;97833.82;1705696;83;21131;-59
2022/01/05 11:14:12;;;;;;;1.35;1.00;;;;;;;9.77;69.59;97829.09;1703868;82;21370;-56
2022/01/05 11:16:47;;;;;;;2.42;1.22;;;;;;;9.81;69.29;97830.07;1703401;83;21048;-56
2022/01/05 11:19:22;;;;;;;2.27;1.35;;;;;;;9.84;68.99;97837.05;1709381;83;21136;-56
2022/01/05 11:22:15;;;;;;;1.67;1.00;;;;;;;9.86;68.81;97844.03;1704045;81;21085;-56
2022/01/05 11:24:47;;;;;;;2.08;1.37;;;;;;;9.88;68.46;97846.09;1704191;82;21081;-55
2022/01/05 11:27:27;;;;;;;1.40;1.00;;;;;;;9.88;68.21;97839.38;1698896;81;21448;-57
2022/01/05 11:29:54;;;;;;;2.83;0.80;;;;;;;9.89;68.05;97841.58;1701452;83;21088;-59
2022/01/05 11:32:24;;;;;;;1.92;1.00;;;;;;;9.88;68.14;97840.72;1695211;82;21193;-57
2022/01/05 11:34:51;;;;;;;1.07;0.90;;;;;;;9.93;68.02;97844.91;1705891;83;21061;-54
2022/01/05 11:37:18;;;;;;;1.15;0.90;;;;;;;9.96;68.02;97847.34;1708903;82;21089;-58
2022/01/05 11:39:47;;;;;;;3.75;0.90;;;;;;;10.00;67.73;97846.15;1712098;82;20973;-59
2022/01/05 11:42:15;;;;;;;2.92;1.00;;;;;;;10.03;67.56;97850.81;1699385;83;21081;-56
2022/01/05 11:44:48;;;;;;;1.35;1.00;;;;;;;10.05;67.71;97861.42;1707173;82;22654;-58
2022/01/05 11:47:27;;;;;;;1.10;0.90;;;;;;;10.08;67.69;97856.69;1704293;82;21070;-60
2022/01/05 11:49:57;;;;;;;1.75;1.00;;;;;;;10.09;67.50;97861.09;1707659;82;21088;-56